Portland, PA (18351)

8:02 PM EDT on August 30, 2014 (GMT -0400)
Callie's Farm | Change Station
CLOSE
Current Station
Personal Weather Station
Location: Bangor, PA
Elevation: 725 ft
Nearby Weather Stations

Elev 725 ft 40.87 °N, 75.17 °W | Updated 2 minutes ago

Overcast
Overcast
70.7 °F
Feels Like 70.7 °F
N
0.0
Wind Variable Wind from South
Gusts 1.0 mph

Today
High -- | Low -- °F
--% Chance of Precip.
Yesterday
High -- | Low -- °F
Precip. -- in
6:25 AM 7:36 PM
Waxing Crescent, 25% visible
Pressure 30.18 in
Visibility 10.0 miles
Clouds Few 1700 ft
Mostly Cloudy 3200 ft
Dew Point 70 °F
Humidity 99%
Rainfall 0.00 in
Snow Depth Not available.
UV 0 out of 12
Pollen 9.50 out of 12
Ozone Good
PM2.5 Good
Flu Activity Not available.
METAR KMPO 302353Z AUTO 18005KT 10SM FEW017 BKN032 19/16 A3019 RMK AO2 SLP218 T01890161 10211 20189 56006 TSNO

More Conditions Fewer Conditions

Pressure 30.18 in
Visibility 10.0 miles
Clouds Few 1700 ft
Mostly Cloudy 3200 ft
Dew Point 70 °F
Humidity 99%
Rainfall 0.00 in
Snow Depth Not available.
UV 0 out of 12
Pollen 9.50 out of 12
Ozone Good
PM2.5 Good
Flu Activity Not available.
METAR KMPO 302353Z AUTO 18005KT 10SM FEW017 BKN032 19/16 A3019 RMK AO2 SLP218 T01890161 10211 20189 56006 TSNO

More Conditions Fewer Conditions

10-Day Weather Forecast

Almanac

Astronomy

Aug. 30, 2014 Rise Set
Actual Time 6:25 AM EDT 7:36 PM EDT
Civil Twilight 5:56 AM EDT 8:04 PM EDT
Nautical Twilight 5:22 AM EDT 8:38 PM EDT
Astronomical Twilight 4:47 AM EDT 9:13 PM EDT
Moon 11:12 AM EDT (8/30) 10:06 PM EDT (8/30)
Length of Visible Light 14h 07m
Length of Day
13h 10m
Tomorrow will be 2m 35s shorter.
Waxing Crescent, 25% of the Moon is Illuminated
Today
Waxing Crescent
Sep 2
First Quarter
Sep 8
Full
Sep 15
Last Quarter
Sep 24
New

Today's Extremes

State Highs State Lows

Community

WunderPhotos

Upload Photos

1,748,696 photos uploaded!

Nearby

Air Quality

  Air Quality AQ Index Pollutant
Yesterday Good
OZONE
Yesterday Good
PM2.5
Current Good
PM2.5
Current Good
OZONE
Saturday Moderate
PM2.5
Saturday Good
OZONE
Sunday Moderate
PM2.5
Sunday Moderate
OZONE
Monday Moderate
PM2.5
Monday Moderate
OZONE
Tuesday Moderate
PM2.5
Tuesday Good
OZONE
Wednesday Good
PM2.5
Wednesday Good
OZONE

Snow Depth

Station Depth Elevation
No new snow has been reported.

Earthquake Activity

City Distance Mag. Time & Date
No recent earthquake activity has been reported nearby.
Minimum magnitude displayed is 2.5.

Coastal Water Temperatures

Place Temperature
No Stations Reporting

Nearby Weather Stations